Twin Springs, Nevada Weather observations

Data are for observation ending at time listed.
 Day   Time    Ave.   Ave.  Ave.  Vector   Max.   Stn.    Total    Solar   Ave.  
  of    of     Air    Rel.  Wind   Wind    Wind   Baro.  Precip.   Rad.    Soil  
Year   Day     Temp.  Hum.  Speed  Dir.    Gust   Pres.                    Temp. 
2016   (PST)    F      %     mph   deg.    mph     mb.     in.     W/m2     F   
------------------------------------------------------------------------------
 122    4:00   41.1    72    2.3   312      8.0    842     0.00       0    48.2
 122    5:00   38.0    80    1.8   334      4.0    843     0.00       2    47.6
 122    6:00   40.3    78    3.5   355      7.1    843     0.00     103    46.9
 122    7:00   45.9    64    5.2   331      9.6    844     0.00     161    46.5
 122    8:00   49.8    55    5.4   321     10.6    844     0.00     529    46.9
 122    9:00   54.5    42    4.4    31     11.5    844     0.00     840    48.2
 122   10:00   56.9    37    3.2    54     10.7    843     0.00     996    51.0
 122   11:00   57.1    36    3.7   103     10.8    843     0.00     640    55.3
 122   12:00   56.8    35    2.9     6      7.6    843     0.00     425    58.8
 122   13:00   57.6    34    5.8   350     13.2    843     0.00     527    60.2
 122   14:00   59.5    32    6.9    41     14.4    843     0.00     851    61.0
 122   15:00   60.5    30    5.4    38     18.6    843     0.00     669    61.7
 122   16:00   61.3    28    5.2   107     12.7    843     0.00     587    62.4
 122   17:00   61.5    26    5.1   110     11.9    843     0.00     395    63.5
 122   18:00   58.9    29    4.3    85     11.2    843     0.00      80    64.0
 122   19:00   55.7    36    4.7    60     12.4    843     0.00       9    62.9
 122   20:00   54.6    40    8.0    71     15.9    844     0.00       0    61.2
 122   21:00   54.2    42    3.7   129     12.6    845     0.00       0    59.7
 122   22:00   51.1    53    2.8   294      5.6    845     0.00       0    58.5
 122   23:00   48.0    61    2.4   288      6.6    845     0.00       0    57.5
 123    0:00   47.2    62    2.2   288      7.5    846     0.00       0    56.4
 123    1:00   45.9    62    4.4    11      7.1    846     0.00       0    55.5
 123    2:00   41.6    73    3.1   322      6.2    846     0.00       0    54.5
 123    3:00   40.7    75    3.3   339      6.4    847     0.00       0    53.5

Return to Twin Springs, Nevada graphs page.


Western Regional Climate Center,wrcc@dri.edu